createdAt,value
2018-03-01T00:00:20.044Z,25.86
2018-03-01T00:01:19.907Z,25.88
2018-03-01T00:02:19.864Z,25.82
2018-03-01T00:03:19.871Z,25.81
2018-03-01T00:04:19.905Z,25.71
2018-03-01T00:05:20.108Z,25.66
2018-03-01T00:06:20.305Z,25.59
2018-03-01T00:07:19.762Z,25.62
2018-03-01T00:08:19.738Z,25.57
2018-03-01T00:09:19.768Z,25.52
2018-03-01T00:10:19.747Z,25.45
2018-03-01T00:11:19.758Z,25.56
2018-03-01T00:12:19.662Z,25.51
2018-03-01T00:13:21.253Z,25.56
2018-03-01T00:14:19.598Z,25.49
2018-03-01T00:15:19.555Z,25.38
2018-03-01T00:16:19.651Z,25.37
2018-03-01T00:17:19.512Z,25.41
2018-03-01T00:18:19.497Z,25.33
2018-03-01T00:19:19.622Z,25.34
2018-03-01T00:20:19.447Z,25.29
2018-03-01T00:21:19.433Z,25.34
2018-03-01T00:22:20.117Z,25.29
2018-03-01T00:23:19.423Z,25.23
2018-03-01T00:25:20.628Z,25.08
2018-03-01T00:26:20.983Z,25.08
2018-03-01T00:27:19.276Z,25.12
2018-03-01T00:28:19.449Z,25.12
2018-03-01T00:29:19.243Z,25.08
2018-03-01T00:30:19.209Z,24.96
2018-03-01T00:31:19.251Z,24.96
2018-03-01T00:32:19.248Z,24.97
2018-03-01T00:33:19.322Z,24.89
2018-03-01T00:34:19.098Z,24.93
2018-03-01T00:35:19.091Z,24.93
2018-03-01T00:36:19.072Z,24.78
2018-03-01T00:37:19.027Z,24.80
2018-03-01T00:38:19.294Z,24.78
2018-03-01T00:39:18.997Z,24.70
2018-03-01T00:40:18.953Z,24.70
2018-03-01T00:41:19.693Z,24.66
2018-03-01T00:42:19.458Z,24.63
2018-03-01T00:43:19.698Z,24.67
2018-03-01T00:44:19.404Z,24.54
2018-03-01T00:45:18.830Z,24.66
2018-03-01T00:46:18.805Z,24.49
2018-03-01T00:47:18.788Z,24.54
2018-03-01T00:48:18.792Z,24.56
2018-03-01T00:49:18.957Z,24.49
2018-03-01T00:50:18.704Z,24.52
2018-03-01T00:51:18.685Z,24.54
2018-03-01T00:52:18.638Z,24.45
2018-03-01T00:53:18.646Z,24.51
2018-03-01T00:54:18.803Z,24.46
2018-03-01T00:55:19.160Z,24.49
2018-03-01T00:56:18.542Z,24.34
2018-03-01T00:57:18.528Z,24.44
2018-03-01T00:58:18.551Z,24.48
2018-03-01T00:59:18.702Z,24.44
2018-03-01T01:00:18.472Z,24.39
2018-03-01T01:01:18.973Z,24.34
2018-03-01T01:02:18.522Z,24.39
2018-03-01T01:03:18.425Z,24.30
2018-03-01T01:04:18.370Z,24.24
2018-03-01T01:05:18.526Z,24.29
2018-03-01T01:06:18.375Z,24.24
2018-03-01T01:07:18.338Z,24.22
2018-03-01T01:08:18.497Z,24.21
2018-03-01T01:09:18.208Z,24.18
2018-03-01T01:10:18.198Z,24.26
2018-03-01T01:11:18.382Z,24.21
2018-03-01T01:12:18.630Z,24.18
2018-03-01T01:13:18.167Z,24.17
2018-03-01T01:14:18.072Z,24.12
2018-03-01T01:15:18.070Z,24.09
2018-03-01T01:16:18.758Z,24.15
2018-03-01T01:17:17.992Z,24.04
2018-03-01T01:18:17.995Z,24.04
2018-03-01T01:19:17.968Z,24.04
2018-03-01T01:20:18.487Z,24.04
2018-03-01T01:21:17.956Z,23.96
2018-03-01T01:22:18.664Z,24.00
2018-03-01T01:23:17.846Z,23.90
2018-03-01T01:24:17.930Z,23.97
2018-03-01T01:25:18.305Z,23.99
2018-03-01T01:26:17.770Z,23.92
2018-03-01T01:27:17.836Z,23.96
2018-03-01T01:28:17.931Z,23.87
2018-03-01T01:29:18.225Z,23.85
2018-03-01T01:30:18.239Z,23.77
2018-03-01T01:31:17.733Z,23.78
2018-03-01T01:32:18.191Z,23.82
2018-03-01T01:33:18.329Z,23.77
2018-03-01T01:34:17.575Z,23.84
2018-03-01T01:35:17.585Z,23.87
2018-03-01T01:36:17.601Z,23.84
2018-03-01T01:37:18.124Z,23.78
2018-03-01T01:38:17.554Z,23.75
2018-03-01T01:39:18.189Z,23.71
2018-03-01T01:40:17.480Z,23.75
2018-03-01T01:41:17.896Z,23.67
2018-03-01T01:42:17.864Z,23.72
2018-03-01T01:43:18.050Z,23.66
2018-03-01T01:44:17.883Z,23.75
2018-03-01T01:45:18.013Z,23.70
2018-03-01T01:46:17.289Z,23.62
2018-03-01T01:47:17.275Z,23.66
2018-03-01T01:48:17.227Z,23.64
2018-03-01T01:49:17.205Z,23.66
2018-03-01T01:50:17.680Z,23.64
2018-03-01T01:51:18.099Z,23.64
2018-03-01T01:52:18.030Z,23.64
2018-03-01T01:53:17.574Z,23.72
2018-03-01T01:54:17.574Z,23.57
2018-03-01T01:55:17.296Z,23.63
2018-03-01T01:56:17.601Z,23.67
2018-03-01T01:57:16.990Z,23.67
2018-03-01T01:58:16.974Z,23.55
2018-03-01T01:59:17.459Z,23.57
2018-03-01T02:00:17.463Z,23.53
2018-03-01T02:01:17.387Z,23.57
2018-03-01T02:02:17.376Z,23.48
2018-03-01T02:03:16.850Z,23.48
2018-03-01T02:04:16.822Z,23.52
2018-03-01T02:05:16.872Z,23.55
2018-03-01T02:06:17.555Z,23.50
2018-03-01T02:07:16.782Z,23.56
2018-03-01T02:08:16.767Z,23.56
2018-03-01T02:09:17.272Z,23.55
2018-03-01T02:10:17.268Z,23.45
2018-03-01T02:11:17.032Z,23.44
2018-03-01T02:12:17.138Z,23.50
2018-03-01T02:13:16.726Z,23.44
2018-03-01T02:14:16.615Z,23.40
2018-03-01T02:15:16.619Z,23.35
2018-03-01T02:16:16.768Z,23.29
2018-03-01T02:17:16.465Z,23.29
2018-03-01T02:18:16.838Z,23.29
2018-03-01T02:19:16.953Z,23.37
2018-03-01T02:20:16.505Z,23.35
2018-03-01T02:21:16.956Z,23.37
2018-03-01T02:22:16.524Z,23.35
2018-03-01T02:23:16.858Z,23.26
2018-03-01T02:24:16.404Z,23.34
2018-03-01T02:25:17.043Z,23.28
2018-03-01T02:26:16.795Z,23.24
2018-03-01T02:27:16.204Z,23.16
2018-03-01T02:28:16.576Z,23.12
2018-03-01T02:29:16.189Z,23.09
2018-03-01T02:30:16.816Z,23.16
2018-03-01T02:31:16.321Z,23.18
2018-03-01T02:32:16.684Z,23.12
2018-03-01T02:33:16.611Z,23.16
2018-03-01T02:34:16.977Z,23.12
2018-03-01T02:35:15.986Z,23.16
2018-03-01T02:36:16.476Z,23.15
2018-03-01T02:37:17.673Z,23.18
2018-03-01T02:38:15.949Z,23.16
2018-03-01T02:39:15.893Z,23.15
2018-03-01T02:40:16.496Z,23.09
2018-03-01T02:41:16.463Z,23.16
2018-03-01T02:42:15.841Z,23.10
2018-03-01T02:43:15.855Z,23.22
2018-03-01T02:44:15.912Z,23.15
2018-03-01T02:45:16.070Z,23.10
2018-03-01T02:46:15.678Z,23.06
2018-03-01T02:47:15.683Z,23.10
2018-03-01T02:48:16.341Z,23.04
2018-03-01T02:49:15.610Z,23.04
2018-03-01T02:50:16.269Z,23.03
2018-03-01T02:51:16.066Z,22.97
2018-03-01T02:52:15.545Z,22.99
2018-03-01T02:53:15.627Z,23.04
2018-03-01T02:54:15.544Z,22.97
2018-03-01T02:55:15.520Z,23.00
2018-03-01T02:56:16.242Z,22.92
2018-03-01T02:57:15.492Z,22.91
2018-03-01T02:58:15.355Z,22.92
2018-03-01T02:59:15.387Z,22.97
2018-03-01T03:00:15.327Z,22.99
2018-03-01T03:01:15.287Z,23.00
2018-03-01T03:02:15.551Z,22.96
2018-03-01T03:03:15.863Z,22.99
2018-03-01T03:04:15.329Z,23.01
2018-03-01T03:05:15.766Z,22.96
2018-03-01T03:06:15.226Z,22.99
2018-03-01T03:07:15.143Z,22.96
2018-03-01T03:08:15.338Z,22.97
2018-03-01T03:09:15.235Z,22.99
2018-03-01T03:10:15.717Z,22.86
2018-03-01T03:11:15.026Z,22.97
2018-03-01T03:12:15.084Z,22.89
2018-03-01T03:13:15.030Z,22.79
2018-03-01T03:14:15.241Z,22.84
2018-03-01T03:15:14.898Z,22.88
2018-03-01T03:16:14.902Z,22.84
2018-03-01T03:17:15.076Z,22.91
2018-03-01T03:18:14.901Z,22.84
2018-03-01T03:19:15.716Z,22.84
2018-03-01T03:20:14.906Z,22.85
2018-03-01T03:21:14.893Z,22.79
2018-03-01T03:22:14.907Z,22.85
2018-03-01T03:23:14.757Z,22.85
2018-03-01T03:24:14.952Z,22.84
2018-03-01T03:25:15.118Z,22.85
2018-03-01T03:26:14.627Z,22.75
2018-03-01T03:27:14.627Z,22.81
2018-03-01T03:28:14.576Z,22.71
2018-03-01T03:29:14.733Z,22.73
2018-03-01T03:30:14.508Z,22.76
2018-03-01T03:31:14.493Z,22.75
2018-03-01T03:32:14.476Z,22.78
2018-03-01T03:33:14.437Z,22.73
2018-03-01T03:34:14.416Z,22.73
2018-03-01T03:35:14.634Z,22.75
2018-03-01T03:36:14.359Z,22.75
2018-03-01T03:37:14.350Z,22.71
2018-03-01T03:38:14.365Z,22.71
2018-03-01T03:39:14.341Z,22.75
2018-03-01T03:40:14.251Z,22.71
2018-03-01T03:41:14.418Z,22.69
2018-03-01T03:42:14.191Z,22.64
2018-03-01T03:43:14.163Z,22.66
2018-03-01T03:44:14.130Z,22.67
2018-03-01T03:45:14.111Z,22.69
2018-03-01T03:46:14.137Z,22.82
2018-03-01T03:47:14.281Z,22.71
2018-03-01T03:48:14.110Z,22.64
2018-03-01T03:49:14.532Z,22.69
2018-03-01T03:50:14.089Z,22.63
2018-03-01T03:51:13.940Z,22.67
2018-03-01T03:52:14.204Z,22.66
2018-03-01T03:53:14.097Z,22.66
2018-03-01T03:54:13.847Z,22.66
2018-03-01T03:55:13.828Z,22.64
2018-03-01T03:56:13.792Z,22.70
2018-03-01T03:57:14.034Z,22.69
2018-03-01T03:58:13.747Z,22.69
2018-03-01T03:59:14.254Z,22.82
2018-03-01T04:00:13.708Z,22.63
2018-03-01T04:01:13.670Z,22.76
2018-03-01T04:02:13.845Z,22.67
2018-03-01T04:03:14.146Z,22.70
2018-03-01T04:04:13.586Z,22.67
2018-03-01T04:05:13.562Z,22.71
2018-03-01T04:06:13.584Z,22.76
2018-03-01T04:07:14.408Z,22.64
2018-03-01T04:08:13.554Z,22.63
2018-03-01T04:09:13.559Z,22.67
2018-03-01T04:10:13.439Z,22.69
2018-03-01T04:11:13.633Z,22.63
2018-03-01T04:12:13.415Z,22.63
2018-03-01T04:13:13.795Z,22.69
2018-03-01T04:14:13.333Z,22.61
2018-03-01T04:15:13.464Z,22.59
2018-03-01T04:16:13.377Z,22.64
2018-03-01T04:17:13.223Z,22.60
2018-03-01T04:18:13.241Z,22.60
2018-03-01T04:19:13.473Z,22.51
2018-03-01T04:20:13.255Z,22.60
2018-03-01T04:21:13.172Z,22.59
2018-03-01T04:22:13.104Z,22.51
2018-03-01T04:23:13.223Z,22.54
2018-03-01T04:24:13.416Z,22.59
2018-03-01T04:25:13.170Z,22.51
2018-03-01T04:26:13.039Z,22.51
2018-03-01T04:27:13.040Z,22.51
2018-03-01T04:28:13.008Z,22.54
2018-03-01T04:29:13.093Z,22.49
2018-03-01T04:30:12.926Z,22.55
2018-03-01T04:31:12.909Z,22.45
2018-03-01T04:32:12.826Z,22.44
2018-03-01T04:33:12.849Z,22.51
2018-03-01T04:34:13.101Z,22.45
2018-03-01T04:35:12.773Z,22.34
2018-03-01T04:36:12.764Z,22.36
2018-03-01T04:37:12.705Z,22.39
2018-03-01T04:38:12.664Z,22.39
2018-03-01T04:39:12.903Z,22.39
2018-03-01T04:40:12.678Z,22.33
2018-03-01T04:41:12.658Z,22.39
2018-03-01T04:42:12.577Z,22.34
2018-03-01T04:43:12.623Z,22.33
2018-03-01T04:44:12.768Z,22.31
2018-03-01T04:45:12.497Z,22.30
2018-03-01T04:46:12.495Z,22.29
2018-03-01T04:47:12.488Z,22.24
2018-03-01T04:48:12.421Z,22.29
2018-03-01T04:49:12.367Z,22.26
2018-03-01T04:50:12.596Z,22.26
2018-03-01T04:51:12.365Z,22.34
2018-03-01T04:52:12.440Z,22.33
2018-03-01T04:53:12.334Z,22.42
2018-03-01T04:54:12.362Z,22.31
2018-03-01T04:55:12.207Z,22.42
2018-03-01T04:56:12.360Z,22.38
2018-03-01T04:57:12.141Z,22.39
2018-03-01T04:58:12.169Z,22.49
2018-03-01T04:59:12.169Z,22.45
2018-03-01T05:00:12.048Z,22.39
2018-03-01T05:01:12.237Z,22.51
2018-03-01T05:02:12.026Z,22.45
2018-03-01T05:03:11.986Z,22.57
2018-03-01T05:04:12.036Z,22.51
2018-03-01T05:05:11.982Z,22.59
2018-03-01T05:06:12.219Z,22.64
2018-03-01T05:07:11.900Z,22.71
2018-03-01T05:08:11.887Z,22.75
2018-03-01T05:09:11.824Z,22.82
2018-03-01T05:10:11.771Z,22.85
2018-03-01T05:11:11.961Z,22.85
2018-03-01T05:12:11.737Z,22.84
2018-03-01T05:13:11.709Z,22.94
2018-03-01T05:14:11.661Z,22.97
2018-03-01T05:15:11.655Z,23.00
2018-03-01T05:16:11.827Z,23.09
2018-03-01T05:17:11.600Z,23.00
2018-03-01T05:18:11.562Z,23.06
2018-03-01T05:19:11.526Z,23.00
2018-03-01T05:20:11.519Z,23.06
2018-03-01T05:21:11.542Z,22.94
2018-03-01T05:22:11.664Z,22.91
2018-03-01T05:23:11.492Z,22.92
2018-03-01T05:24:11.405Z,22.99
2018-03-01T05:25:11.366Z,22.92
2018-03-01T05:26:11.347Z,22.99
2018-03-01T05:27:11.331Z,22.94
2018-03-01T05:28:11.510Z,22.94
2018-03-01T05:29:11.330Z,22.84
2018-03-01T05:30:11.234Z,22.86
2018-03-01T05:31:11.206Z,22.88
2018-03-01T05:32:11.186Z,22.91
2018-03-01T05:33:11.147Z,22.89
2018-03-01T05:34:11.426Z,22.86
2018-03-01T05:35:11.113Z,22.89
2018-03-01T05:36:11.083Z,22.92
2018-03-01T05:37:11.045Z,23.00
2018-03-01T05:38:11.088Z,22.97
2018-03-01T05:39:11.326Z,22.91
2018-03-01T05:40:11.037Z,23.00
2018-03-01T05:41:10.978Z,23.10
2018-03-01T05:42:10.998Z,23.14
2018-03-01T05:43:10.942Z,23.22
2018-03-01T05:44:11.179Z,23.22
2018-03-01T05:45:10.932Z,23.19
2018-03-01T05:46:10.843Z,23.18
2018-03-01T05:47:10.807Z,23.25
2018-03-01T05:48:10.803Z,23.24
2018-03-01T05:49:10.939Z,23.32
2018-03-01T05:50:10.702Z,23.34
2018-03-01T05:51:10.720Z,23.50
2018-03-01T05:52:10.640Z,23.42
2018-03-01T05:53:10.609Z,23.53
2018-03-01T05:54:10.636Z,23.48
2018-03-01T05:55:10.748Z,23.53
2018-03-01T05:56:10.562Z,23.57
2018-03-01T05:57:10.514Z,23.59
2018-03-01T05:58:10.630Z,23.52
2018-03-01T05:59:10.453Z,23.50
2018-03-01T06:00:10.510Z,23.55
2018-03-01T06:01:10.653Z,23.44
2018-03-01T06:02:11.253Z,23.42
2018-03-01T06:03:10.382Z,23.55
2018-03-01T06:04:10.498Z,23.42
2018-03-01T06:05:10.473Z,23.44
2018-03-01T06:06:10.385Z,23.44
2018-03-01T06:07:10.542Z,23.48
2018-03-01T06:08:10.351Z,23.48
2018-03-01T06:09:10.208Z,23.55
2018-03-01T06:10:10.217Z,23.56
2018-03-01T06:11:10.382Z,23.56
2018-03-01T06:12:10.224Z,23.55
2018-03-01T06:13:10.496Z,23.42
2018-03-01T06:14:10.143Z,23.53
2018-03-01T06:15:10.130Z,23.47
2018-03-01T06:16:10.073Z,23.40
2018-03-01T06:17:09.992Z,23.32
2018-03-01T06:18:10.246Z,23.25
2018-03-01T06:19:10.010Z,23.29
2018-03-01T06:20:09.919Z,23.34
2018-03-01T06:21:09.984Z,23.35
2018-03-01T06:22:09.987Z,23.32
2018-03-01T06:23:10.010Z,23.38
2018-03-01T06:24:09.875Z,23.38
2018-03-01T06:25:09.869Z,23.34
2018-03-01T06:26:09.925Z,23.37
2018-03-01T06:27:09.769Z,23.35
2018-03-01T06:28:09.710Z,23.35
2018-03-01T06:29:09.915Z,23.35
2018-03-01T06:30:09.684Z,23.44
2018-03-01T06:31:09.623Z,23.47
2018-03-01T06:32:09.722Z,23.47
2018-03-01T06:33:09.690Z,23.47
2018-03-01T06:34:09.613Z,23.57
2018-03-01T06:35:09.722Z,23.42
2018-03-01T06:36:09.526Z,23.47
2018-03-01T06:37:09.581Z,23.55
2018-03-01T06:38:09.436Z,23.44
2018-03-01T06:39:09.473Z,23.55
2018-03-01T06:40:09.431Z,23.44
2018-03-01T06:41:09.744Z,23.32
2018-03-01T06:42:09.432Z,23.42
2018-03-01T06:43:09.308Z,23.47
2018-03-01T06:44:09.334Z,23.41
2018-03-01T06:45:09.257Z,23.48
2018-03-01T06:46:09.291Z,23.37
2018-03-01T06:47:09.430Z,23.34
2018-03-01T06:48:09.236Z,23.37
2018-03-01T06:49:09.217Z,23.28
2018-03-01T06:50:09.171Z,23.25
2018-03-01T06:51:09.057Z,23.21
2018-03-01T06:52:09.203Z,23.12
2018-03-01T06:53:09.509Z,23.15
2018-03-01T06:54:09.264Z,23.26
2018-03-01T06:55:08.935Z,23.18
2018-03-01T06:56:08.911Z,23.21
2018-03-01T06:57:09.066Z,23.29
2018-03-01T06:58:08.915Z,23.22
2018-03-01T06:59:08.896Z,23.22
2018-03-01T07:00:08.794Z,23.18
2018-03-01T07:01:08.757Z,23.16
2018-03-01T07:02:08.795Z,23.12
2018-03-01T07:03:08.907Z,23.16
2018-03-01T07:04:08.694Z,23.16
2018-03-01T07:05:08.674Z,23.14
2018-03-01T07:06:08.636Z,23.16
2018-03-01T07:07:08.597Z,23.14
2018-03-01T07:08:08.724Z,23.12
2018-03-01T07:09:08.794Z,23.03
2018-03-01T07:10:08.515Z,23.01
2018-03-01T07:11:08.543Z,23.04
2018-03-01T07:12:08.476Z,22.99
2018-03-01T07:13:08.737Z,23.03
2018-03-01T07:14:08.654Z,22.97
2018-03-01T07:15:08.920Z,22.92
2018-03-01T07:16:08.524Z,23.01
2018-03-01T07:17:08.357Z,23.03
2018-03-01T07:18:08.493Z,23.03
2018-03-01T07:19:08.452Z,22.99
2018-03-01T07:20:08.440Z,22.89
2018-03-01T07:21:08.612Z,22.89
2018-03-01T07:22:08.501Z,22.86
2018-03-01T07:23:08.216Z,22.84
2018-03-01T07:24:08.259Z,22.78
2018-03-01T07:25:08.252Z,22.81
2018-03-01T07:26:08.313Z,22.81
2018-03-01T07:27:08.416Z,22.84
2018-03-01T07:28:08.162Z,22.89
2018-03-01T07:29:08.051Z,23.01
2018-03-01T07:30:08.006Z,23.18
2018-03-01T07:31:07.956Z,23.10
2018-03-01T07:32:08.203Z,23.16
2018-03-01T07:33:07.948Z,23.14
2018-03-01T07:34:07.903Z,23.09
2018-03-01T07:35:07.837Z,23.12
2018-03-01T07:36:07.941Z,23.04
2018-03-01T07:37:07.925Z,23.00
2018-03-01T07:38:07.984Z,22.99
2018-03-01T07:39:07.802Z,22.99
2018-03-01T07:40:07.765Z,22.86
2018-03-01T07:41:07.669Z,22.86
2018-03-01T07:42:07.635Z,22.84
2018-03-01T07:43:07.629Z,22.76
2018-03-01T07:44:07.800Z,22.75
2018-03-01T07:45:07.628Z,22.78
2018-03-01T07:46:07.684Z,22.70
2018-03-01T07:47:07.508Z,22.71
2018-03-01T07:48:07.485Z,22.76
2018-03-01T07:49:07.609Z,22.84
2018-03-01T07:50:07.506Z,22.84
2018-03-01T07:51:07.936Z,22.88
2018-03-01T07:52:07.375Z,22.78
2018-03-01T07:53:07.355Z,22.85
2018-03-01T07:54:07.326Z,22.81
2018-03-01T07:55:07.490Z,22.85
2018-03-01T07:56:07.272Z,22.86
2018-03-01T07:57:07.235Z,22.82
2018-03-01T07:58:07.220Z,22.85
2018-03-01T07:59:07.177Z,22.97
2018-03-01T08:00:07.146Z,22.94
2018-03-01T08:01:07.338Z,22.97
2018-03-01T08:02:07.085Z,22.97
2018-03-01T08:03:07.071Z,22.85
2018-03-01T08:04:07.058Z,22.82
2018-03-01T08:05:07.029Z,22.73
2018-03-01T08:06:07.187Z,22.67
2018-03-01T08:07:06.965Z,22.49
2018-03-01T08:08:06.941Z,22.49
2018-03-01T08:09:06.903Z,22.39
2018-03-01T08:10:06.893Z,22.26
2018-03-01T08:11:06.852Z,22.31
2018-03-01T08:12:07.029Z,22.22
2018-03-01T08:13:06.811Z,22.26
2018-03-01T08:14:06.774Z,22.27
2018-03-01T08:15:06.752Z,22.23
2018-03-01T08:16:06.719Z,22.24
2018-03-01T08:17:06.685Z,22.12
2018-03-01T08:18:06.860Z,22.07
2018-03-01T08:19:06.644Z,22.09
2018-03-01T08:20:06.598Z,22.07
2018-03-01T08:21:06.587Z,22.00
2018-03-01T08:22:06.552Z,22.09
2018-03-01T08:23:06.734Z,22.05
2018-03-01T08:24:06.489Z,21.97
2018-03-01T08:25:06.467Z,22.00
2018-03-01T08:26:06.439Z,21.99
2018-03-01T08:27:06.417Z,22.05
2018-03-01T08:28:06.405Z,22.07
2018-03-01T08:29:06.546Z,22.16
2018-03-01T08:30:06.337Z,22.23
2018-03-01T08:31:06.304Z,22.33
2018-03-01T08:32:06.264Z,22.45
2018-03-01T08:33:06.259Z,22.48
2018-03-01T08:34:06.215Z,22.51
2018-03-01T08:35:06.391Z,22.61
2018-03-01T08:36:06.154Z,22.55
2018-03-01T08:37:06.131Z,22.67
2018-03-01T08:38:06.117Z,22.64
2018-03-01T08:39:06.080Z,22.73
2018-03-01T08:40:06.295Z,22.75
2018-03-01T08:41:06.035Z,22.91
2018-03-01T08:42:05.994Z,22.97
2018-03-01T08:43:06.021Z,22.99
2018-03-01T08:44:05.954Z,22.94
2018-03-01T08:45:05.952Z,22.96
2018-03-01T08:46:06.132Z,22.91
2018-03-01T08:47:06.110Z,22.86
2018-03-01T08:48:05.879Z,22.99
2018-03-01T08:49:05.957Z,22.99
2018-03-01T08:50:05.789Z,22.97
2018-03-01T08:51:05.788Z,22.97
2018-03-01T08:52:06.053Z,23.07
2018-03-01T08:53:05.804Z,23.00
2018-03-01T08:54:05.706Z,23.00
2018-03-01T08:55:05.715Z,23.14
2018-03-01T08:56:05.803Z,23.10
2018-03-01T08:57:05.946Z,23.10
2018-03-01T08:58:06.168Z,23.22
2018-03-01T08:59:05.540Z,23.21
2018-03-01T09:00:05.621Z,23.16
2018-03-01T09:01:05.627Z,23.14
2018-03-01T09:02:05.600Z,23.16
2018-03-01T09:03:05.944Z,23.14
2018-03-01T09:04:05.465Z,23.25
2018-03-01T09:05:05.414Z,23.21
2018-03-01T09:06:05.505Z,23.24
2018-03-01T09:07:05.399Z,23.37
2018-03-01T09:08:05.395Z,23.34
2018-03-01T09:09:05.580Z,23.37
2018-03-01T09:10:05.268Z,23.35
2018-03-01T09:11:05.197Z,23.37
2018-03-01T09:12:05.265Z,23.41
2018-03-01T09:13:05.132Z,23.45
2018-03-01T09:14:05.218Z,23.32
2018-03-01T09:15:05.559Z,23.35
2018-03-01T09:16:05.294Z,23.29
2018-03-01T09:17:05.225Z,23.28
2018-03-01T09:18:05.119Z,23.32
2018-03-01T09:19:05.197Z,23.37
2018-03-01T09:20:05.185Z,23.32
2018-03-01T09:21:05.117Z,23.22
2018-03-01T09:22:05.011Z,23.14
2018-03-01T09:23:05.058Z,23.10
2018-03-01T09:24:05.044Z,23.09
2018-03-01T09:25:05.061Z,23.12
2018-03-01T09:26:05.242Z,23.19
2018-03-01T09:27:04.949Z,23.38
2018-03-01T09:28:04.855Z,23.35
2018-03-01T09:29:04.896Z,23.45
2018-03-01T09:30:04.825Z,23.38
2018-03-01T09:31:04.845Z,23.37
2018-03-01T09:32:04.626Z,23.29
2018-03-01T09:33:04.591Z,23.34
2018-03-01T09:34:04.604Z,23.38
2018-03-01T09:35:04.550Z,23.52
2018-03-01T09:36:04.773Z,23.48
2018-03-01T09:37:04.473Z,23.56
2018-03-01T09:38:04.456Z,23.57
2018-03-01T09:39:04.433Z,23.55
2018-03-01T09:40:04.393Z,23.56
2018-03-01T09:41:04.367Z,23.59
2018-03-01T09:42:04.545Z,23.50
2018-03-01T09:43:04.333Z,23.60
2018-03-01T09:44:04.289Z,23.57
2018-03-01T09:45:04.257Z,23.53
2018-03-01T09:46:04.313Z,23.45
2018-03-01T09:47:04.224Z,23.44
2018-03-01T09:48:04.386Z,23.41
2018-03-01T09:49:04.166Z,23.48
2018-03-01T09:50:04.133Z,23.45
2018-03-01T09:51:04.100Z,23.45
2018-03-01T09:52:04.198Z,23.35
2018-03-01T09:53:04.056Z,23.34
2018-03-01T09:54:04.209Z,23.29
2018-03-01T09:55:03.990Z,23.28
2018-03-01T09:56:03.981Z,23.12
2018-03-01T09:57:03.941Z,23.14
2018-03-01T09:58:03.966Z,23.12
2018-03-01T09:59:04.080Z,23.09
2018-03-01T10:00:03.878Z,23.04
2018-03-01T10:01:03.875Z,22.97
2018-03-01T10:02:03.808Z,22.97
2018-03-01T10:03:03.770Z,22.86
2018-03-01T10:04:03.942Z,22.91
2018-03-01T10:05:03.719Z,22.85
2018-03-01T10:06:03.682Z,22.97
2018-03-01T10:07:03.669Z,22.99
2018-03-01T10:08:03.756Z,22.91
2018-03-01T10:09:03.754Z,23.00
2018-03-01T10:10:03.599Z,23.04
2018-03-01T10:11:03.570Z,22.99
2018-03-01T10:12:03.533Z,22.91
2018-03-01T10:13:03.506Z,23.07
2018-03-01T10:14:03.672Z,23.00
2018-03-01T10:15:03.459Z,23.03
2018-03-01T10:16:03.634Z,23.04
2018-03-01T10:17:03.493Z,23.03
2018-03-01T10:18:03.459Z,23.04
2018-03-01T10:19:03.378Z,23.09
2018-03-01T10:20:03.549Z,23.15
2018-03-01T10:21:03.339Z,23.14
2018-03-01T10:22:03.488Z,23.06
2018-03-01T10:23:03.229Z,23.03
2018-03-01T10:24:03.224Z,22.94
2018-03-01T10:25:03.266Z,22.91
2018-03-01T10:26:03.410Z,22.92
2018-03-01T10:27:03.255Z,22.89
2018-03-01T10:28:03.143Z,22.85
2018-03-01T10:29:03.108Z,22.84
2018-03-01T10:30:03.072Z,22.82
2018-03-01T10:31:03.126Z,22.84
2018-03-01T10:32:03.201Z,22.75
2018-03-01T10:33:02.997Z,22.70
2018-03-01T10:34:02.938Z,22.73
2018-03-01T10:35:02.936Z,22.84
2018-03-01T10:36:02.935Z,22.76
2018-03-01T10:37:03.105Z,22.85
2018-03-01T10:38:02.884Z,22.82
2018-03-01T10:39:02.779Z,22.84
2018-03-01T10:40:02.784Z,22.97
2018-03-01T10:41:02.752Z,22.97
2018-03-01T10:42:03.439Z,22.96
2018-03-01T10:43:02.683Z,23.03
2018-03-01T10:44:02.652Z,23.00
2018-03-01T10:45:02.637Z,23.06
2018-03-01T10:46:02.604Z,23.04
2018-03-01T10:47:02.771Z,22.99
2018-03-01T10:48:02.558Z,23.00
2018-03-01T10:49:02.519Z,22.91
2018-03-01T10:50:02.475Z,22.91
2018-03-01T10:51:02.455Z,22.85
2018-03-01T10:52:02.502Z,22.89
2018-03-01T10:53:02.594Z,22.86
2018-03-01T10:54:02.402Z,22.88
2018-03-01T10:55:02.375Z,23.04
2018-03-01T10:56:02.550Z,23.15
2018-03-01T10:57:03.500Z,23.14
2018-03-01T10:58:02.276Z,23.10
2018-03-01T10:59:02.454Z,23.10
2018-03-01T11:00:02.211Z,23.12
2018-03-01T11:01:02.237Z,23.07
2018-03-01T11:02:02.175Z,23.07
2018-03-01T11:03:02.157Z,23.03
2018-03-01T11:04:02.104Z,22.99
2018-03-01T11:05:02.267Z,22.97
2018-03-01T11:06:02.062Z,23.04
2018-03-01T11:07:02.032Z,23.03
2018-03-01T11:08:01.999Z,23.06
2018-03-01T11:09:02.040Z,23.04
2018-03-01T11:10:02.170Z,23.07
2018-03-01T11:11:01.909Z,23.16
2018-03-01T11:12:01.879Z,23.09
2018-03-01T11:13:01.900Z,23.10
2018-03-01T11:14:01.868Z,23.19
2018-03-01T11:15:02.035Z,23.15
2018-03-01T11:16:01.759Z,23.09
2018-03-01T11:17:01.745Z,23.10
2018-03-01T11:18:01.829Z,23.15
2018-03-01T11:19:01.703Z,23.25
2018-03-01T11:20:01.866Z,23.24
2018-03-01T11:21:01.639Z,23.26
2018-03-01T11:22:01.657Z,23.25
2018-03-01T11:23:01.596Z,23.25
2018-03-01T11:24:01.619Z,23.22
2018-03-01T11:25:01.728Z,23.35
2018-03-01T11:26:01.562Z,23.18
2018-03-01T11:27:01.462Z,23.18
2018-03-01T11:28:01.436Z,23.16
2018-03-01T11:29:01.433Z,23.35
2018-03-01T11:30:01.389Z,23.44
2018-03-01T11:31:01.604Z,23.38
2018-03-01T11:32:01.342Z,23.41
2018-03-01T11:33:01.315Z,23.35
2018-03-01T11:34:01.265Z,23.26
2018-03-01T11:35:01.297Z,23.32
2018-03-01T11:36:01.216Z,23.26
2018-03-01T11:37:01.384Z,23.14
2018-03-01T11:38:01.153Z,23.16
2018-03-01T11:39:01.145Z,23.15
2018-03-01T11:40:01.183Z,23.15
2018-03-01T11:41:01.054Z,23.18
2018-03-01T11:42:01.257Z,23.24
2018-03-01T11:43:01.278Z,23.26
2018-03-01T11:44:01.512Z,23.34
2018-03-01T11:45:00.976Z,23.32
2018-03-01T11:46:01.323Z,23.32
2018-03-01T11:47:02.750Z,23.35
2018-03-01T11:48:01.178Z,23.29
2018-03-01T11:49:01.265Z,23.35
2018-03-01T11:50:01.708Z,23.38
2018-03-01T11:51:00.843Z,23.29
2018-03-01T11:52:00.982Z,23.25
2018-03-01T11:53:01.083Z,23.21
2018-03-01T11:54:00.826Z,23.35
2018-03-01T11:55:01.077Z,23.24
2018-03-01T11:56:01.776Z,23.26
2018-03-01T11:57:00.891Z,23.21
2018-03-01T11:58:01.049Z,23.14
2018-03-01T11:59:01.756Z,23.24
2018-03-01T12:00:00.666Z,23.24
2018-03-01T12:01:01.188Z,23.19
2018-03-01T12:02:00.647Z,23.18
2018-03-01T12:03:00.701Z,23.26
2018-03-01T12:04:00.637Z,23.21
2018-03-01T12:05:01.256Z,23.22
2018-03-01T12:06:00.405Z,23.35
2018-03-01T12:07:00.379Z,23.24
2018-03-01T12:08:00.503Z,23.32
2018-03-01T12:09:00.303Z,23.35
2018-03-01T12:10:00.458Z,23.35
2018-03-01T12:11:00.475Z,23.45
2018-03-01T12:12:00.252Z,23.38
2018-03-01T12:13:00.198Z,23.35
2018-03-01T12:14:00.214Z,23.56
2018-03-01T12:15:00.145Z,23.44
2018-03-01T12:16:00.319Z,23.60
2018-03-01T12:17:00.115Z,23.56
2018-03-01T12:18:00.075Z,23.63
2018-03-01T12:19:00.044Z,23.67
2018-03-01T12:20:00.015Z,23.62
2018-03-01T12:20:59.988Z,23.70
2018-03-01T12:22:00.231Z,23.66
2018-03-01T12:22:59.926Z,23.72
2018-03-01T12:23:59.993Z,23.79
2018-03-01T12:25:01.745Z,23.87
2018-03-01T12:26:01.565Z,23.89
2018-03-01T12:27:00.142Z,23.92
2018-03-01T12:28:00.317Z,23.99
2018-03-01T12:29:00.843Z,24.08
2018-03-01T12:30:00.028Z,24.09
2018-03-01T12:30:59.893Z,24.08
2018-03-01T12:31:59.875Z,24.11
2018-03-01T12:32:59.657Z,24.19
2018-03-01T12:33:59.828Z,24.22
2018-03-01T12:34:59.598Z,24.22
2018-03-01T12:35:59.577Z,24.30
2018-03-01T12:36:59.547Z,24.36
2018-03-01T12:37:59.511Z,24.45
2018-03-01T12:38:59.707Z,24.44
2018-03-01T12:39:59.477Z,24.58
2018-03-01T12:40:59.449Z,24.51
2018-03-01T12:41:59.398Z,24.58
2018-03-01T12:42:59.396Z,24.59
2018-03-01T12:43:59.533Z,24.71
2018-03-01T12:44:59.676Z,24.80
2018-03-01T12:45:59.597Z,24.93
2018-03-01T12:46:59.466Z,25.07
2018-03-01T12:47:59.380Z,25.33
2018-03-01T12:48:59.288Z,25.62
2018-03-01T12:49:59.528Z,25.89
2018-03-01T12:50:59.806Z,25.99
2018-03-01T12:51:59.688Z,26.47
2018-03-01T12:52:59.829Z,26.81